createdAt,value
2023-01-04T00:02:11.011Z,5.67
2023-01-04T00:04:39.409Z,5.63
2023-01-04T00:07:07.823Z,5.93
2023-01-04T00:09:36.226Z,5.80
2023-01-04T00:12:05.204Z,5.23
2023-01-04T00:14:33.672Z,6.43
2023-01-04T00:17:03.409Z,6.00
2023-01-04T00:19:31.771Z,5.97
2023-01-04T00:22:00.099Z,6.77
2023-01-04T00:24:28.525Z,6.43
2023-01-04T00:26:56.978Z,6.07
2023-01-04T00:29:25.641Z,5.47
2023-01-04T00:31:54.099Z,6.33
2023-01-04T00:34:23.839Z,6.30
2023-01-04T00:36:52.295Z,6.30
2023-01-04T00:39:21.306Z,6.03
2023-01-04T00:42:00.905Z,6.57
2023-01-04T00:44:30.628Z,7.03
2023-01-04T00:46:59.926Z,7.50
2023-01-04T00:49:30.221Z,6.57
2023-01-04T00:51:59.377Z,6.83
2023-01-04T00:54:28.190Z,7.40
2023-01-04T00:56:56.615Z,6.80
2023-01-04T00:59:25.379Z,7.10
2023-01-04T01:01:53.815Z,7.07
2023-01-04T01:04:25.420Z,7.43
2023-01-04T01:06:55.513Z,7.40
2023-01-04T01:09:25.174Z,7.53
2023-01-04T01:11:54.972Z,6.83
2023-01-04T01:14:25.994Z,8.33
2023-01-04T01:16:57.645Z,8.20
2023-01-04T01:19:28.562Z,7.77
2023-01-04T01:21:59.394Z,7.97
2023-01-04T01:24:28.767Z,8.47
2023-01-04T01:26:57.195Z,8.73
2023-01-04T01:29:26.400Z,8.00
2023-01-04T01:31:55.106Z,8.33
2023-01-04T01:34:23.585Z,8.93
2023-01-04T01:36:52.049Z,8.07
2023-01-04T01:39:21.998Z,9.73
2023-01-04T01:41:50.595Z,9.50
2023-01-04T01:45:02.842Z,8.57
2023-01-04T01:47:40.923Z,8.93
2023-01-04T01:50:23.721Z,8.83
2023-01-04T01:52:53.273Z,8.37
2023-01-04T01:55:23.704Z,7.83
2023-01-04T01:57:54.517Z,7.73
2023-01-04T02:00:23.130Z,7.53
2023-01-04T02:03:03.380Z,8.07
2023-01-04T02:05:33.730Z,8.60
2023-01-04T02:08:05.055Z,7.47
2023-01-04T02:10:35.168Z,8.87
2023-01-04T02:13:09.548Z,8.50
2023-01-04T02:15:56.445Z,8.10
2023-01-04T02:18:31.855Z,8.53
2023-01-04T02:21:07.740Z,9.10
2023-01-04T02:24:19.467Z,8.97
2023-01-04T02:27:28.052Z,8.50
2023-01-04T02:30:53.780Z,8.03
2023-01-04T02:33:40.144Z,8.83
2023-01-04T02:36:17.528Z,8.40
2023-01-04T02:39:05.024Z,8.83
2023-01-04T02:41:38.709Z,8.87
2023-01-04T02:44:32.852Z,8.90
2023-01-04T02:47:07.430Z,9.17
2023-01-04T02:49:57.880Z,9.40
2023-01-04T02:52:30.840Z,9.17
2023-01-04T02:54:59.445Z,9.47
2023-01-04T02:57:42.608Z,10.07
2023-01-04T03:01:00.144Z,8.90
2023-01-04T03:03:54.881Z,8.90
2023-01-04T03:06:29.199Z,8.87
2023-01-04T03:09:04.192Z,8.67
2023-01-04T03:11:58.045Z,9.60
2023-01-04T03:14:33.669Z,9.43
2023-01-04T03:17:05.631Z,9.33
2023-01-04T03:19:54.215Z,9.47
2023-01-04T03:22:49.285Z,9.57
2023-01-04T03:25:38.062Z,8.93
2023-01-04T03:28:26.418Z,8.77
2023-01-04T03:31:18.417Z,9.80
2023-01-04T03:34:04.762Z,9.70
2023-01-04T03:36:47.549Z,9.37
2023-01-04T03:39:51.452Z,10.20
2023-01-04T03:42:46.532Z,10.13
2023-01-04T03:45:38.375Z,9.93
2023-01-04T03:48:31.596Z,9.10
2023-01-04T03:51:14.810Z,9.53
2023-01-04T03:53:53.905Z,9.50
2023-01-04T03:56:26.039Z,9.00
2023-01-04T03:58:55.754Z,9.30
2023-01-04T04:01:26.891Z,9.43
2023-01-04T04:04:13.554Z,9.70
2023-01-04T04:06:59.294Z,9.77
2023-01-04T04:09:27.758Z,9.77
2023-01-04T04:11:57.916Z,10.67
2023-01-04T04:14:26.436Z,9.07
2023-01-04T04:16:54.965Z,9.13
2023-01-04T04:19:23.562Z,8.90
2023-01-04T04:21:51.923Z,10.13
2023-01-04T04:24:23.204Z,10.43
2023-01-04T04:26:51.960Z,10.63
2023-01-04T04:29:21.889Z,9.40
2023-01-04T04:31:50.337Z,10.57
2023-01-04T04:34:18.746Z,9.40
2023-01-04T04:36:47.211Z,9.67
2023-01-04T04:39:15.922Z,9.90
2023-01-04T04:41:43.322Z,10.77
2023-01-04T04:44:14.131Z,11.03
2023-01-04T04:46:44.770Z,12.03
2023-01-04T04:49:14.707Z,12.87
2023-01-04T04:51:44.696Z,13.40
2023-01-04T04:54:18.722Z,13.93
2023-01-04T04:56:48.000Z,15.07
2023-01-04T04:59:16.726Z,15.40
2023-01-04T05:01:46.750Z,13.97
2023-01-04T05:04:17.167Z,14.23
2023-01-04T05:06:46.181Z,12.97
2023-01-04T05:09:15.438Z,13.27
2023-01-04T05:12:01.896Z,12.57
2023-01-04T05:14:30.456Z,12.73
2023-01-04T05:17:00.292Z,12.43
2023-01-04T05:19:28.716Z,11.27
2023-01-04T05:21:57.017Z,10.37
2023-01-04T05:24:25.413Z,11.20
2023-01-04T05:26:53.847Z,12.50
2023-01-04T05:29:39.804Z,11.97
2023-01-04T05:32:09.575Z,11.13
2023-01-04T05:34:39.701Z,11.03
2023-01-04T05:37:08.178Z,11.23
2023-01-04T05:39:36.503Z,11.40
2023-01-04T05:42:22.389Z,12.47
2023-01-04T05:44:50.775Z,11.73
2023-01-04T05:47:20.575Z,12.57
2023-01-04T05:49:49.085Z,11.20
2023-01-04T05:52:18.072Z,11.93
2023-01-04T05:54:46.625Z,12.57
2023-01-04T05:57:15.589Z,13.47
2023-01-04T05:59:44.170Z,11.77
2023-01-04T06:02:17.375Z,12.20
2023-01-04T06:04:51.588Z,12.33
2023-01-04T06:07:23.575Z,12.13
2023-01-04T06:09:52.202Z,11.23
2023-01-04T06:12:20.790Z,11.77
2023-01-04T06:14:49.264Z,12.27
2023-01-04T06:17:17.670Z,11.50
2023-01-04T06:19:47.464Z,11.67
2023-01-04T06:22:15.930Z,12.90
2023-01-04T06:24:44.559Z,12.73
2023-01-04T06:27:13.126Z,12.53
2023-01-04T06:29:41.513Z,12.90
2023-01-04T06:32:09.881Z,13.13
2023-01-04T06:34:38.301Z,11.90
2023-01-04T06:37:08.047Z,11.47
2023-01-04T06:39:37.165Z,11.83
2023-01-04T06:42:06.828Z,12.37
2023-01-04T06:44:36.994Z,11.60
2023-01-04T06:47:05.304Z,11.37
2023-01-04T06:49:33.644Z,11.33
2023-01-04T06:52:02.072Z,11.93
2023-01-04T06:54:33.753Z,12.23
2023-01-04T06:57:02.171Z,11.87
2023-01-04T06:59:31.055Z,11.73
2023-01-04T07:01:59.498Z,13.20
2023-01-04T07:04:28.613Z,12.57
2023-01-04T07:06:57.826Z,13.20
2023-01-04T07:09:26.376Z,12.93
2023-01-04T07:14:26.609Z,12.90
2023-01-04T07:16:55.106Z,13.37
2023-01-04T07:19:23.531Z,12.83
2023-01-04T07:21:53.860Z,12.40
2023-01-04T07:24:27.912Z,12.00
2023-01-04T07:27:01.582Z,12.77
2023-01-04T07:29:30.629Z,12.23
2023-01-04T07:31:59.444Z,12.17
2023-01-04T07:34:29.572Z,13.07
2023-01-04T07:36:58.258Z,12.07
2023-01-04T07:39:27.005Z,11.47
2023-01-04T07:41:55.544Z,11.23
2023-01-04T07:44:27.653Z,12.40
2023-01-04T07:46:56.273Z,11.43
2023-01-04T07:49:24.935Z,11.93
2023-01-04T07:51:53.354Z,12.70
2023-01-04T07:54:24.063Z,11.37
2023-01-04T07:56:52.850Z,10.90
2023-01-04T07:59:24.960Z,10.77
2023-01-04T08:01:53.547Z,11.00
2023-01-04T08:04:29.625Z,11.83
2023-01-04T08:07:01.241Z,11.23
2023-01-04T08:09:29.772Z,11.60
2023-01-04T08:11:58.214Z,12.27
2023-01-04T08:14:28.068Z,14.30
2023-01-04T08:16:56.532Z,13.30
2023-01-04T08:19:24.987Z,11.90
2023-01-04T08:21:53.717Z,12.57
2023-01-04T08:24:22.329Z,12.27
2023-01-04T08:26:50.783Z,13.10
2023-01-04T08:29:19.132Z,15.85
2023-01-04T08:31:48.919Z,14.80
2023-01-04T08:34:17.318Z,13.93
2023-01-04T08:36:49.451Z,14.33
2023-01-04T08:39:17.990Z,12.83
2023-01-04T08:41:59.322Z,13.40
2023-01-04T08:44:29.626Z,13.43
2023-01-04T08:46:59.436Z,14.33
2023-01-04T08:49:28.037Z,13.77
2023-01-04T08:51:56.446Z,13.47
2023-01-04T08:54:24.826Z,13.87
2023-01-04T08:56:53.137Z,13.07
2023-01-04T08:59:21.508Z,13.63
2023-01-04T09:01:49.911Z,12.93
2023-01-04T09:04:19.764Z,13.50
2023-01-04T09:06:48.179Z,12.77
2023-01-04T09:09:17.326Z,13.05
2023-01-04T09:11:45.911Z,13.65
2023-01-04T09:14:14.263Z,13.77
2023-01-04T09:16:42.677Z,12.38
2023-01-04T09:19:13.032Z,13.45
2023-01-04T09:21:46.489Z,12.82
2023-01-04T09:24:15.014Z,12.07
2023-01-04T09:26:43.431Z,12.45
2023-01-04T09:29:12.644Z,12.40
2023-01-04T09:31:41.241Z,11.82
2023-01-04T09:34:14.767Z,12.95
2023-01-04T09:36:46.092Z,12.38
2023-01-04T09:39:21.757Z,12.88
2023-01-04T09:41:58.554Z,13.25
2023-01-04T09:47:40.378Z,13.07
2023-01-04T09:50:17.766Z,13.97
2023-01-04T09:53:01.152Z,12.90
2023-01-04T09:55:39.454Z,11.77
2023-01-04T09:58:26.899Z,11.60
2023-01-04T10:01:02.842Z,10.93
2023-01-04T10:03:35.385Z,12.50
2023-01-04T10:06:04.621Z,11.83
2023-01-04T10:08:35.314Z,12.00
2023-01-04T10:11:25.628Z,11.53
2023-01-04T10:14:15.254Z,12.03
2023-01-04T10:17:12.534Z,11.87
2023-01-04T10:21:17.692Z,11.53
2023-01-04T10:23:03.346Z,12.13
2023-01-04T10:25:40.800Z,10.70
2023-01-04T10:28:27.660Z,10.73
2023-01-04T10:31:40.926Z,10.70
2023-01-04T10:34:02.349Z,10.47
2023-01-04T10:36:32.699Z,10.70
2023-01-04T10:39:04.893Z,10.80
2023-01-04T10:41:40.362Z,10.50
2023-01-04T10:44:18.050Z,10.43
2023-01-04T10:46:57.523Z,11.47
2023-01-04T10:49:35.356Z,11.27
2023-01-04T10:52:10.398Z,9.67
2023-01-04T10:54:46.720Z,10.47
2023-01-04T10:57:21.882Z,10.70
2023-01-04T10:59:58.417Z,11.23
2023-01-04T11:02:37.074Z,11.00
2023-01-04T11:05:14.596Z,10.80
2023-01-04T11:07:49.978Z,10.87
2023-01-04T11:10:25.782Z,10.60
2023-01-04T11:12:55.770Z,10.30
2023-01-04T11:15:24.198Z,10.53
2023-01-04T11:17:53.802Z,11.00
2023-01-04T11:20:26.747Z,11.60
2023-01-04T11:23:02.458Z,12.07
2023-01-04T11:25:38.805Z,11.00
2023-01-04T11:28:18.609Z,11.13
2023-01-04T11:30:55.380Z,11.33
2023-01-04T11:33:26.043Z,12.47
2023-01-04T11:35:58.944Z,12.37
2023-01-04T11:38:29.989Z,12.80
2023-01-04T11:41:02.192Z,12.97
2023-01-04T11:43:33.693Z,12.27
2023-01-04T11:46:06.308Z,12.90
2023-01-04T11:48:42.151Z,11.87
2023-01-04T11:51:36.663Z,12.60
2023-01-04T11:54:17.800Z,12.43
2023-01-04T11:57:08.827Z,13.70
2023-01-04T11:59:41.023Z,12.97
2023-01-04T12:02:58.749Z,13.17
2023-01-04T12:05:28.185Z,12.90
2023-01-04T12:07:59.044Z,13.07
2023-01-04T12:10:29.305Z,12.50
2023-01-04T12:13:00.621Z,12.03
2023-01-04T12:15:40.244Z,13.13
2023-01-04T12:18:17.617Z,12.20
2023-01-04T12:20:46.920Z,12.87
2023-01-04T12:23:15.639Z,12.97
2023-01-04T12:25:49.066Z,13.37
2023-01-04T12:28:35.771Z,14.17
2023-01-04T12:31:30.911Z,13.83
2023-01-04T12:34:28.638Z,13.17
2023-01-04T12:37:05.251Z,13.97
2023-01-04T12:39:44.024Z,14.40
2023-01-04T12:42:24.828Z,14.00
2023-01-04T12:45:23.922Z,14.40
2023-01-04T12:48:12.842Z,13.80
2023-01-04T12:51:33.284Z,14.23
2023-01-04T12:54:05.805Z,13.63
2023-01-04T12:57:25.745Z,14.37
2023-01-04T13:00:00.131Z,12.53
2023-01-04T13:02:30.849Z,13.97
2023-01-04T13:05:53.523Z,13.73
2023-01-04T13:07:53.531Z,12.90
2023-01-04T13:10:32.423Z,13.37
2023-01-04T13:13:29.624Z,13.07
2023-01-04T13:16:16.970Z,13.50
2023-01-04T13:18:49.423Z,12.33
2023-01-04T13:21:28.799Z,13.30
2023-01-04T13:24:00.389Z,12.87
2023-01-04T13:26:34.836Z,12.83
2023-01-04T13:29:16.935Z,12.40
2023-01-04T13:31:58.518Z,12.60
2023-01-04T13:34:32.547Z,13.03
2023-01-04T13:37:22.960Z,12.73
2023-01-04T13:39:54.247Z,12.70
2023-01-04T13:42:28.931Z,12.60
2023-01-04T13:45:34.048Z,12.17
2023-01-04T13:48:06.558Z,12.30
2023-01-04T13:50:38.048Z,11.93
2023-01-04T13:53:09.150Z,11.80
2023-01-04T13:55:39.511Z,11.53
2023-01-04T13:58:17.518Z,11.23
2023-01-04T14:00:49.633Z,11.33
2023-01-04T14:03:37.099Z,11.07
2023-01-04T14:06:27.126Z,11.27
2023-01-04T14:09:06.161Z,11.70
2023-01-04T14:12:08.409Z,10.30
2023-01-04T14:14:46.343Z,10.53
2023-01-04T14:17:36.250Z,11.07
2023-01-04T14:20:07.092Z,10.27
2023-01-04T14:22:42.863Z,11.27
2023-01-04T14:25:56.521Z,10.10
2023-01-04T14:28:50.125Z,10.60
2023-01-04T14:31:35.743Z,10.67
2023-01-04T14:34:14.561Z,10.83
2023-01-04T14:36:44.300Z,10.23
2023-01-04T14:39:35.599Z,10.90
2023-01-04T14:42:06.211Z,9.70
2023-01-04T14:44:36.544Z,11.30
2023-01-04T14:47:07.374Z,10.47
2023-01-04T14:49:35.994Z,10.60
2023-01-04T14:52:11.520Z,9.83
2023-01-04T14:54:40.312Z,10.43
2023-01-04T14:57:11.751Z,11.43
2023-01-04T14:59:40.105Z,9.57
2023-01-04T15:02:11.247Z,10.57
2023-01-04T15:04:39.859Z,10.40
2023-01-04T15:07:08.397Z,10.07
2023-01-04T15:09:37.295Z,10.90
2023-01-04T15:12:06.698Z,10.67
2023-01-04T15:14:36.421Z,10.57
2023-01-04T15:17:04.899Z,10.37
2023-01-04T15:19:37.750Z,10.00
2023-01-04T15:22:06.845Z,9.80
2023-01-04T15:24:36.400Z,9.87
2023-01-04T15:27:05.035Z,9.83
2023-01-04T15:29:33.941Z,10.57
2023-01-04T15:32:03.690Z,10.10
2023-01-04T15:34:32.319Z,8.80
2023-01-04T15:37:00.660Z,10.20
2023-01-04T15:39:29.134Z,9.93
2023-01-04T15:42:14.992Z,9.70
2023-01-04T15:44:44.928Z,10.03
2023-01-04T15:47:14.619Z,9.47
2023-01-04T15:49:43.001Z,9.63
2023-01-04T15:52:11.473Z,9.83
2023-01-04T15:54:39.776Z,10.10
2023-01-04T15:57:08.628Z,10.37
2023-01-04T15:59:36.949Z,9.87
2023-01-04T16:02:05.483Z,10.83
2023-01-04T16:04:37.055Z,10.50
2023-01-04T16:07:05.510Z,11.00
2023-01-04T16:09:33.952Z,10.33
2023-01-04T16:12:19.718Z,9.87
2023-01-04T16:14:48.067Z,9.80
2023-01-04T16:17:16.597Z,10.57
2023-01-04T16:19:46.697Z,10.10
2023-01-04T16:22:15.073Z,9.80
2023-01-04T16:27:35.612Z,8.77
2023-01-04T16:30:04.981Z,9.20
2023-01-04T16:32:33.555Z,8.17
2023-01-04T16:35:03.927Z,8.03
2023-01-04T16:37:33.325Z,9.30
2023-01-04T16:40:09.488Z,7.73
2023-01-04T16:42:38.930Z,6.90
2023-01-04T16:45:09.397Z,7.07
2023-01-04T16:47:42.106Z,6.00
2023-01-04T16:50:14.152Z,6.63
2023-01-04T16:52:42.668Z,5.93
2023-01-04T16:55:12.407Z,6.53
2023-01-04T16:57:41.064Z,6.33
2023-01-04T17:00:11.508Z,6.13
2023-01-04T17:02:39.932Z,5.77
2023-01-04T17:05:09.603Z,5.73
2023-01-04T17:07:39.353Z,5.30
2023-01-04T17:10:09.336Z,5.50
2023-01-04T17:12:53.000Z,5.73
2023-01-04T17:18:12.523Z,5.90
2023-01-04T17:20:41.510Z,5.13
2023-01-04T17:23:11.971Z,5.87
2023-01-04T17:25:40.861Z,5.73
2023-01-04T17:28:09.211Z,5.43
2023-01-04T17:30:39.614Z,6.07
2023-01-04T17:33:08.039Z,5.47
2023-01-04T17:35:38.345Z,5.53
2023-01-04T17:38:08.026Z,5.47
2023-01-04T17:40:38.149Z,5.63
2023-01-04T17:43:06.574Z,5.47
2023-01-04T17:45:35.038Z,5.50
2023-01-04T17:48:03.427Z,5.63
2023-01-04T17:50:31.804Z,5.30
2023-01-04T17:53:00.814Z,5.40
2023-01-04T17:55:29.235Z,5.53
2023-01-04T17:57:59.084Z,5.93
2023-01-04T18:00:27.567Z,5.30
2023-01-04T18:02:56.280Z,5.27
2023-01-04T18:05:24.753Z,5.57
2023-01-04T18:07:53.150Z,5.73
2023-01-04T18:10:41.000Z,5.47
2023-01-04T18:13:11.332Z,5.73
2023-01-04T18:15:54.846Z,6.03
2023-01-04T18:18:28.584Z,5.93
2023-01-04T18:20:59.805Z,6.33
2023-01-04T18:23:30.907Z,6.33
2023-01-04T18:26:03.151Z,6.47
2023-01-04T18:28:33.768Z,6.37
2023-01-04T18:31:02.946Z,6.73
2023-01-04T18:33:31.614Z,5.97
2023-01-04T18:36:04.684Z,6.03
2023-01-04T18:38:33.234Z,6.55
2023-01-04T18:41:04.673Z,6.90
2023-01-04T18:43:35.974Z,6.37
2023-01-04T18:46:09.798Z,5.63
2023-01-04T18:48:39.010Z,6.15
2023-01-04T18:51:09.872Z,6.13
2023-01-04T18:53:38.368Z,7.07
2023-01-04T18:56:08.045Z,5.60
2023-01-04T18:58:38.500Z,5.40
2023-01-04T19:01:09.867Z,7.13
2023-01-04T19:03:41.096Z,5.33
2023-01-04T19:06:12.057Z,5.47
2023-01-04T19:08:41.175Z,5.43
2023-01-04T19:11:10.263Z,5.30
2023-01-04T19:13:40.471Z,5.63
2023-01-04T19:16:10.008Z,5.33
2023-01-04T19:18:38.505Z,4.90
2023-01-04T19:21:08.046Z,5.60
2023-01-04T19:23:37.796Z,5.40
2023-01-04T19:26:07.841Z,5.20
2023-01-04T19:28:36.358Z,5.23
2023-01-04T19:31:10.734Z,4.93
2023-01-04T19:33:39.163Z,5.30
2023-01-04T19:36:08.747Z,5.27
2023-01-04T19:38:37.309Z,5.20
2023-01-04T19:41:07.699Z,4.20
2023-01-04T19:43:36.613Z,5.07
2023-01-04T19:46:11.708Z,5.47
2023-01-04T19:48:40.774Z,5.73
2023-01-04T19:51:12.499Z,5.70
2023-01-04T19:53:41.535Z,5.07
2023-01-04T19:56:10.629Z,4.87
2023-01-04T19:58:40.302Z,5.50
2023-01-04T20:01:14.993Z,5.30
2023-01-04T20:03:43.763Z,5.27
2023-01-04T20:06:13.906Z,5.70
2023-01-04T20:08:43.400Z,5.50
2023-01-04T20:11:12.555Z,5.30
2023-01-04T20:13:41.532Z,5.77
2023-01-04T20:16:11.711Z,6.50
2023-01-04T20:18:40.203Z,4.63
2023-01-04T20:21:11.535Z,5.60
2023-01-04T20:23:40.400Z,6.03
2023-01-04T20:26:11.805Z,5.30
2023-01-04T20:28:41.947Z,5.43
2023-01-04T20:31:15.262Z,6.03
2023-01-04T20:33:43.904Z,5.27
2023-01-04T20:36:16.678Z,5.50
2023-01-04T20:38:47.400Z,5.43
2023-01-04T20:41:18.404Z,5.60
2023-01-04T20:43:47.533Z,5.57
2023-01-04T20:46:20.070Z,5.60
2023-01-04T20:48:48.709Z,5.37
2023-01-04T20:51:20.079Z,5.17
2023-01-04T20:53:49.141Z,4.90
2023-01-04T20:56:20.370Z,5.23
2023-01-04T20:58:50.535Z,4.40
2023-01-04T21:01:22.163Z,5.13
2023-01-04T21:03:51.149Z,5.00
2023-01-04T21:06:20.643Z,4.80
2023-01-04T21:08:50.447Z,5.40
2023-01-04T21:11:19.877Z,4.90
2023-01-04T21:13:52.487Z,5.27
2023-01-04T21:16:22.423Z,5.13
2023-01-04T21:18:50.939Z,4.97
2023-01-04T21:21:20.651Z,6.23
2023-01-04T21:23:56.164Z,5.57
2023-01-04T21:26:26.457Z,6.23
2023-01-04T21:28:54.999Z,4.60
2023-01-04T21:31:26.272Z,5.40
2023-01-04T21:33:55.597Z,5.70
2023-01-04T21:36:27.413Z,4.60
2023-01-04T21:38:57.693Z,5.10
2023-01-04T21:41:27.171Z,5.67
2023-01-04T21:43:58.353Z,5.70
2023-01-04T21:46:29.570Z,5.57
2023-01-04T21:49:01.658Z,5.50
2023-01-04T21:51:31.083Z,5.60
2023-01-04T21:54:01.772Z,5.93
2023-01-04T21:56:31.532Z,5.53
2023-01-04T21:59:00.022Z,5.43
2023-01-04T22:01:34.797Z,5.57
2023-01-04T22:04:04.193Z,5.77
2023-01-04T22:06:37.355Z,5.30
2023-01-04T22:09:07.276Z,5.40
2023-01-04T22:11:35.792Z,4.97
2023-01-04T22:14:04.924Z,5.30
2023-01-04T22:16:35.001Z,4.80
2023-01-04T22:19:05.623Z,4.73
2023-01-04T22:21:34.050Z,5.07
2023-01-04T22:24:02.594Z,4.73
2023-01-04T22:26:34.306Z,4.97
2023-01-04T22:29:02.779Z,4.63
2023-01-04T22:31:31.602Z,4.80
2023-01-04T22:34:02.416Z,5.03
2023-01-04T22:36:30.929Z,5.23
2023-01-04T22:39:00.927Z,5.70
2023-01-04T22:41:30.006Z,5.50
2023-01-04T22:44:00.833Z,5.27
2023-01-04T22:46:30.658Z,4.73
2023-01-04T22:49:00.795Z,5.43
2023-01-04T22:51:31.484Z,5.27
2023-01-04T22:54:02.687Z,4.37
2023-01-04T22:56:31.488Z,4.73
2023-01-04T22:59:00.281Z,5.30
2023-01-04T23:01:31.843Z,4.57
2023-01-04T23:04:03.369Z,4.77
2023-01-04T23:06:33.158Z,4.87
2023-01-04T23:09:04.993Z,5.73
2023-01-04T23:11:35.403Z,5.00
2023-01-04T23:14:05.203Z,4.93
2023-01-04T23:16:33.872Z,5.27
2023-01-04T23:19:05.161Z,4.53
2023-01-04T23:21:35.437Z,5.20
2023-01-04T23:24:04.639Z,5.07
2023-01-04T23:26:34.542Z,5.00
2023-01-04T23:29:03.432Z,5.00
2023-01-04T23:31:34.034Z,4.80
2023-01-04T23:34:06.952Z,4.57
2023-01-04T23:36:38.934Z,5.13
2023-01-04T23:39:10.121Z,5.40
2023-01-04T23:41:47.773Z,5.03
2023-01-04T23:44:19.974Z,4.83
2023-01-04T23:46:52.403Z,5.00
2023-01-04T23:49:24.420Z,4.70
2023-01-04T23:51:53.278Z,5.10
2023-01-04T23:54:23.081Z,4.77
2023-01-04T23:56:51.886Z,5.40
2023-01-04T23:59:21.052Z,4.87
